createdAt,value
2023-03-11T00:01:18.339Z,3.98
2023-03-11T00:03:45.401Z,3.98
2023-03-11T00:06:14.646Z,3.97
2023-03-11T00:08:44.169Z,3.92
2023-03-11T00:11:12.278Z,3.89
2023-03-11T00:13:45.267Z,3.85
2023-03-11T00:16:13.256Z,3.82
2023-03-11T00:18:51.932Z,3.78
2023-03-11T00:21:19.846Z,3.80
2023-03-11T00:23:48.350Z,3.80
2023-03-11T00:26:16.500Z,3.80
2023-03-11T00:28:48.053Z,3.80
2023-03-11T00:31:26.332Z,3.78
2023-03-11T00:34:18.270Z,3.78
2023-03-11T00:36:48.931Z,3.79
2023-03-11T00:39:17.376Z,3.80
2023-03-11T00:41:46.433Z,3.82
2023-03-11T00:44:17.157Z,3.82
2023-03-11T00:46:45.606Z,3.85
2023-03-11T00:49:16.677Z,3.86
2023-03-11T00:51:44.564Z,3.85
2023-03-11T00:54:16.916Z,3.84
2023-03-11T00:56:46.783Z,3.85
2023-03-11T00:59:18.767Z,3.89
2023-03-11T01:01:47.409Z,3.93
2023-03-11T01:04:15.597Z,3.93
2023-03-11T01:06:45.784Z,3.91
2023-03-11T01:09:14.669Z,3.89
2023-03-11T01:11:44.821Z,3.89
2023-03-11T01:14:12.423Z,3.91
2023-03-11T01:16:40.305Z,3.91
2023-03-11T01:19:12.027Z,3.90
2023-03-11T01:21:43.363Z,3.88
2023-03-11T01:24:13.142Z,3.85
2023-03-11T01:26:42.118Z,3.83
2023-03-11T01:29:09.841Z,3.81
2023-03-11T01:31:38.018Z,3.78
2023-03-11T01:34:05.460Z,3.75
2023-03-11T01:36:35.656Z,3.75
2023-03-11T01:39:07.342Z,3.75
2023-03-11T01:41:35.907Z,3.75
2023-03-11T01:44:05.891Z,3.75
2023-03-11T01:46:54.493Z,3.78
2023-03-11T01:49:28.753Z,3.78
2023-03-11T01:52:03.265Z,3.75
2023-03-11T01:54:37.063Z,3.73
2023-03-11T01:57:06.359Z,3.75
2023-03-11T01:59:40.791Z,3.77
2023-03-11T02:02:25.514Z,3.76
2023-03-11T02:04:55.436Z,3.76
2023-03-11T02:07:25.485Z,3.76
2023-03-11T02:10:01.662Z,3.77
2023-03-11T02:12:32.351Z,3.78
2023-03-11T02:15:01.202Z,3.80
2023-03-11T02:17:36.101Z,3.82
2023-03-11T02:20:25.608Z,3.88
2023-03-11T02:22:56.813Z,3.95
2023-03-11T02:25:34.275Z,3.98
2023-03-11T02:28:09.504Z,3.98
2023-03-11T02:30:42.715Z,3.98
2023-03-11T02:33:10.822Z,4.00
2023-03-11T02:35:40.206Z,4.04
2023-03-11T02:38:09.632Z,4.10
2023-03-11T02:40:45.366Z,4.14
2023-03-11T02:43:14.268Z,4.15
2023-03-11T02:45:45.602Z,4.16
2023-03-11T02:48:14.080Z,4.15
2023-03-11T02:50:44.196Z,4.17
2023-03-11T02:53:13.527Z,4.19
2023-03-11T02:55:41.213Z,4.17
2023-03-11T02:58:11.331Z,4.17
2023-03-11T03:00:39.467Z,4.21
2023-03-11T03:03:10.350Z,4.23
2023-03-11T03:05:38.173Z,4.27
2023-03-11T03:08:08.142Z,4.28
2023-03-11T03:10:35.635Z,4.31
2023-03-11T03:13:08.310Z,4.34
2023-03-11T03:15:39.026Z,4.37
2023-03-11T03:18:08.787Z,4.40
2023-03-11T03:20:39.502Z,4.45
2023-03-11T03:23:09.317Z,4.50
2023-03-11T03:25:37.465Z,4.53
2023-03-11T03:28:07.114Z,4.54
2023-03-11T03:30:39.567Z,4.52
2023-03-11T03:33:07.003Z,4.49
2023-03-11T03:35:43.706Z,4.44
2023-03-11T03:38:22.911Z,4.42
2023-03-11T03:40:52.482Z,4.42
2023-03-11T03:43:21.006Z,4.45
2023-03-11T03:46:01.373Z,4.44
2023-03-11T03:48:31.936Z,4.43
2023-03-11T03:51:04.377Z,4.37
2023-03-11T03:57:00.221Z,4.29
2023-03-11T03:59:31.162Z,4.44
2023-03-11T04:02:03.202Z,4.45
2023-03-11T04:04:35.196Z,4.44
2023-03-11T04:07:10.431Z,4.38
2023-03-11T04:09:45.575Z,4.34
2023-03-11T04:12:14.598Z,4.34
2023-03-11T04:14:44.802Z,4.33
2023-03-11T04:17:38.159Z,4.32
2023-03-11T04:20:08.001Z,4.31
2023-03-11T04:22:40.079Z,4.30
2023-03-11T04:25:14.539Z,4.32
2023-03-11T04:27:51.816Z,4.32
2023-03-11T04:30:24.457Z,4.33
2023-03-11T04:33:01.064Z,4.34
2023-03-11T04:35:30.734Z,4.35
2023-03-11T04:38:00.796Z,4.38
2023-03-11T04:40:32.009Z,4.44
2023-03-11T04:43:08.162Z,4.51
2023-03-11T04:45:38.425Z,4.53
2023-03-11T04:48:09.238Z,4.53
2023-03-11T04:50:36.880Z,4.57
2023-03-11T04:53:08.197Z,4.61
2023-03-11T04:55:38.715Z,4.65
2023-03-11T04:58:10.396Z,4.68
2023-03-11T05:00:46.749Z,4.71
2023-03-11T05:03:18.618Z,4.80
2023-03-11T05:05:48.420Z,4.86
2023-03-11T05:08:20.544Z,4.93
2023-03-11T05:10:52.309Z,5.00
2023-03-11T05:13:30.543Z,5.07
2023-03-11T05:16:06.719Z,5.11
2023-03-11T05:18:35.062Z,5.13
2023-03-11T05:21:15.037Z,5.15
2023-03-11T05:23:49.375Z,5.19
2023-03-11T05:26:24.640Z,5.26
2023-03-11T05:28:59.491Z,5.32
2023-03-11T05:31:28.665Z,5.36
2023-03-11T05:34:01.927Z,5.41
2023-03-11T05:36:34.415Z,5.47
2023-03-11T05:39:05.403Z,5.54
2023-03-11T05:41:46.573Z,5.59
2023-03-11T05:44:17.688Z,5.63
2023-03-11T05:46:48.107Z,5.63
2023-03-11T05:49:16.872Z,5.61
2023-03-11T05:51:52.288Z,5.59
2023-03-11T05:54:20.664Z,5.57
2023-03-11T05:56:52.925Z,5.57
2023-03-11T05:59:23.862Z,5.60
2023-03-11T06:01:59.092Z,5.65
2023-03-11T06:04:31.296Z,5.73
2023-03-11T06:07:01.001Z,5.84
2023-03-11T06:09:39.290Z,5.95
2023-03-11T06:12:15.397Z,6.09
2023-03-11T06:15:07.588Z,6.24
2023-03-11T06:17:38.694Z,6.33
2023-03-11T06:20:09.340Z,6.45
2023-03-11T06:22:45.520Z,6.56
2023-03-11T06:25:15.838Z,6.69
2023-03-11T06:27:48.325Z,6.75
2023-03-11T06:30:20.679Z,6.79
2023-03-11T06:33:17.433Z,6.85
2023-03-11T06:36:00.616Z,6.89
2023-03-11T06:38:32.262Z,6.89
2023-03-11T06:41:07.689Z,6.90
2023-03-11T06:43:44.645Z,6.94
2023-03-11T06:46:22.247Z,7.00
2023-03-11T06:48:59.142Z,7.04
2023-03-11T06:51:36.111Z,7.04
2023-03-11T06:54:10.985Z,7.12
2023-03-11T06:56:43.840Z,7.20
2023-03-11T06:59:15.145Z,7.19
2023-03-11T07:01:47.857Z,7.19
2023-03-11T07:04:16.888Z,7.22
2023-03-11T07:06:47.871Z,7.25
2023-03-11T07:09:27.295Z,7.26
2023-03-11T07:11:55.869Z,7.22
2023-03-11T07:14:36.032Z,7.21
2023-03-11T07:17:10.369Z,7.21
2023-03-11T07:19:49.409Z,7.22
2023-03-11T07:22:25.320Z,7.14
2023-03-11T07:24:58.370Z,7.06
2023-03-11T07:27:27.528Z,7.01
2023-03-11T07:30:01.962Z,6.94
2023-03-11T07:32:34.854Z,6.87
2023-03-11T07:35:08.236Z,6.80
2023-03-11T07:37:39.736Z,6.78
2023-03-11T07:40:13.345Z,6.75
2023-03-11T07:42:40.780Z,6.74
2023-03-11T07:45:14.040Z,6.73
2023-03-11T07:47:49.648Z,6.71
2023-03-11T07:50:18.764Z,6.68
2023-03-11T16:14:43.933Z,12.12
2023-03-11T16:17:19.403Z,12.25
2023-03-11T16:20:21.509Z,12.25
2023-03-11T16:22:54.839Z,12.24
2023-03-11T16:25:38.511Z,12.23
2023-03-11T16:28:15.257Z,12.21
2023-03-11T16:30:49.596Z,12.20
2023-03-11T16:33:25.279Z,12.19
2023-03-11T16:36:02.623Z,12.20
2023-03-11T16:38:43.561Z,12.20
2023-03-11T16:41:43.417Z,12.21
2023-03-11T16:45:04.187Z,12.21
2023-03-11T16:48:00.513Z,12.19
2023-03-11T16:50:42.438Z,12.14
2023-03-11T16:53:23.706Z,12.13
2023-03-11T16:55:59.898Z,12.14
2023-03-11T16:58:28.260Z,12.12
2023-03-11T17:01:00.997Z,12.12
2023-03-11T17:03:42.780Z,12.10
2023-03-11T17:06:14.379Z,12.07
2023-03-11T17:08:53.154Z,12.05
2023-03-11T17:11:30.240Z,12.06
2023-03-11T17:14:13.628Z,12.07
2023-03-11T17:16:51.362Z,12.07
2023-03-11T17:19:24.215Z,12.06
2023-03-11T17:21:52.896Z,12.07
2023-03-11T17:24:27.736Z,12.07
2023-03-11T17:26:59.571Z,12.06
2023-03-11T17:29:32.321Z,12.05
2023-03-11T17:32:05.584Z,12.04
2023-03-11T17:34:36.684Z,12.03
2023-03-11T17:37:11.861Z,12.03
2023-03-11T17:39:45.629Z,12.05
2023-03-11T17:42:17.084Z,12.05
2023-03-11T17:44:52.078Z,12.05
2023-03-11T17:47:25.431Z,12.03
2023-03-11T17:49:57.596Z,12.05
2023-03-11T17:52:31.085Z,12.06
2023-03-11T17:55:02.813Z,12.05
2023-03-11T17:57:45.565Z,12.04
2023-03-11T18:00:19.479Z,12.02
2023-03-11T18:02:57.986Z,12.00
2023-03-11T18:05:29.202Z,11.99
2023-03-11T18:08:01.994Z,12.01
2023-03-11T18:10:32.129Z,12.02
2023-03-11T18:13:00.782Z,12.01
2023-03-11T18:15:31.635Z,12.00
2023-03-11T18:18:05.325Z,12.02
2023-03-11T18:20:39.482Z,12.05
2023-03-11T18:23:11.309Z,12.04
2023-03-11T18:25:42.846Z,12.06
2023-03-11T18:28:12.564Z,12.06
2023-03-11T18:30:44.594Z,12.07
2023-03-11T18:33:17.120Z,12.06
2023-03-11T18:35:49.246Z,12.04
2023-03-11T18:38:26.045Z,12.02
2023-03-11T18:41:03.404Z,11.99
2023-03-11T18:43:31.244Z,11.97
2023-03-11T18:46:03.198Z,11.94
2023-03-11T18:48:33.506Z,11.92
2023-03-11T18:51:07.029Z,11.91
2023-03-11T18:53:37.155Z,11.88
2023-03-11T18:56:16.191Z,11.86
2023-03-11T18:58:47.316Z,11.87
2023-03-11T19:01:44.161Z,11.85
2023-03-11T19:04:12.874Z,11.85
2023-03-11T19:07:04.623Z,11.83
2023-03-11T19:09:47.414Z,11.84
2023-03-11T19:12:20.347Z,11.83
2023-03-11T19:14:56.652Z,11.83
2023-03-11T19:17:26.692Z,11.81
2023-03-11T19:19:59.052Z,11.80
2023-03-11T19:22:35.933Z,11.79
2023-03-11T19:25:05.996Z,11.77
2023-03-11T19:27:40.359Z,11.75
2023-03-11T19:30:09.564Z,11.73
2023-03-11T19:32:38.815Z,11.72
2023-03-11T19:35:13.748Z,11.75
2023-03-11T19:38:13.164Z,11.76
2023-03-11T19:40:46.564Z,11.74
2023-03-11T19:43:17.937Z,11.72
2023-03-11T19:46:13.435Z,11.67
2023-03-11T19:49:00.454Z,11.61
2023-03-11T19:51:50.021Z,11.56
2023-03-11T19:54:26.430Z,11.55
2023-03-11T19:57:21.246Z,11.50
2023-03-11T20:00:00.826Z,11.49
2023-03-11T20:02:34.470Z,11.47
2023-03-11T20:05:07.820Z,11.43
2023-03-11T20:07:40.906Z,11.37
2023-03-11T20:10:17.527Z,11.34
2023-03-11T20:13:01.460Z,11.28
2023-03-11T20:15:30.637Z,11.29
2023-03-11T20:18:09.942Z,11.28
2023-03-11T20:20:43.128Z,11.26
2023-03-11T20:23:18.170Z,11.25
2023-03-11T20:25:51.330Z,11.24
2023-03-11T20:28:20.123Z,11.22
2023-03-11T20:30:55.068Z,11.21
2023-03-11T20:33:25.907Z,11.21
2023-03-11T20:36:04.408Z,11.21
2023-03-11T20:38:39.205Z,11.21
2023-03-11T20:41:09.292Z,11.20
2023-03-11T20:43:38.798Z,11.18
2023-03-11T20:46:07.529Z,11.16
2023-03-11T20:48:41.083Z,11.14
2023-03-11T20:51:28.156Z,11.13
2023-03-11T20:54:07.822Z,11.14
2023-03-11T20:56:37.791Z,11.14
2023-03-11T20:59:10.581Z,11.14
2023-03-11T21:01:51.975Z,11.13
2023-03-11T21:04:26.000Z,11.14
2023-03-11T21:07:00.785Z,11.11
2023-03-11T21:09:35.221Z,11.05
2023-03-11T21:12:31.124Z,11.01
2023-03-11T21:15:06.165Z,10.99
2023-03-11T21:17:39.471Z,10.99
2023-03-11T21:20:12.176Z,10.99
2023-03-11T21:23:08.328Z,10.99
2023-03-11T21:25:44.161Z,10.96
2023-03-11T21:28:47.899Z,10.93
2023-03-11T21:31:22.426Z,10.89
2023-03-11T21:34:07.475Z,10.87
2023-03-11T21:36:41.924Z,10.84
2023-03-11T21:39:09.628Z,10.82
2023-03-11T21:41:38.271Z,10.80
2023-03-11T21:44:12.209Z,10.78
2023-03-11T21:46:44.153Z,10.76
2023-03-11T21:49:14.108Z,10.77
2023-03-11T21:51:42.977Z,10.78
2023-03-11T21:54:15.330Z,10.79
2023-03-11T21:56:52.039Z,10.78
2023-03-11T21:59:22.479Z,10.77
2023-03-11T22:02:02.587Z,10.76
2023-03-11T22:04:35.797Z,10.76
2023-03-11T22:07:04.675Z,10.74
2023-03-11T22:09:37.656Z,10.71
2023-03-11T22:12:09.230Z,10.68
2023-03-11T22:14:44.659Z,10.68
2023-03-11T22:17:17.991Z,10.68
2023-03-11T22:19:46.970Z,10.71
2023-03-11T22:22:25.650Z,10.72
2023-03-11T22:24:55.725Z,10.69
2023-03-11T22:27:23.840Z,10.66
2023-03-11T22:30:17.086Z,10.63
2023-03-11T22:32:51.073Z,10.58
2023-03-11T22:35:20.670Z,10.51
2023-03-11T22:37:48.426Z,10.46
2023-03-11T22:40:31.253Z,10.39
2023-03-11T22:43:00.595Z,10.31
2023-03-11T22:45:31.750Z,10.24
2023-03-11T22:47:59.547Z,10.16
2023-03-11T22:50:34.462Z,10.10
2023-03-11T22:53:08.374Z,10.04
2023-03-11T22:55:43.342Z,10.02
2023-03-11T22:58:34.338Z,9.99
2023-03-11T23:01:03.826Z,9.94
2023-03-11T23:03:34.531Z,9.90
2023-03-11T23:06:07.651Z,9.84
2023-03-11T23:08:34.931Z,9.77
2023-03-11T23:11:22.968Z,9.72
2023-03-11T23:13:53.896Z,9.71
2023-03-11T23:16:25.627Z,9.67
2023-03-11T23:18:54.442Z,9.62
2023-03-11T23:21:30.512Z,9.58
2023-03-11T23:24:00.316Z,9.56
2023-03-11T23:26:30.797Z,9.56
2023-03-11T23:29:00.513Z,9.58
2023-03-11T23:31:30.199Z,9.57
2023-03-11T23:39:02.871Z,9.64
2023-03-11T23:41:37.262Z,9.59
2023-03-11T23:44:04.681Z,9.55
2023-03-11T23:46:34.590Z,9.51
2023-03-11T23:49:31.268Z,9.49
2023-03-11T23:52:01.732Z,9.45
2023-03-11T23:54:30.708Z,9.45
2023-03-11T23:57:02.794Z,9.42
2023-03-11T23:59:36.592Z,9.38
